Time;durP1;ratioP1;P1;durP2;ratioP2;P2;SDS_P1;SDS_P2;PMS_P1;PMS_P2;Temp;Humidity;BMP_temperature;BMP_pressure;BME280_temperature;BME280_humidity;BME280_pressure;Samples;Min_cycle;Max_cycle;Signal;HPM_P1;HPM_P2
2023/04/04 00:01:16;;;;;;;4.03;1.38;;;;;;;4.68;43.89;101321.94;10431864;28;20140;-68
2023/04/04 00:06:18;;;;;;;2.03;1.10;;;;;;;4.67;43.98;101322.84;10425946;28;20060;-65
2023/04/04 00:11:20;;;;;;;4.68;1.80;;;;;;;4.62;43.90;101311.63;10427487;28;20523;-67
2023/04/04 00:16:22;;;;;;;2.72;1.60;;;;;;;4.58;44.42;101317.03;10427854;28;20156;-67
2023/04/04 00:21:26;;;;;;;3.63;2.05;;;;;;;4.57;44.40;101304.75;10426370;28;20048;-67
2023/04/04 00:26:27;;;;;;;2.15;1.20;;;;;;;4.52;44.34;101309.34;10428528;28;20531;-67
2023/04/04 00:31:29;;;;;;;3.42;1.98;;;;;;;4.53;44.37;101311.06;10425111;28;20044;-67
2023/04/04 00:36:30;;;;;;;1.83;1.13;;;;;;;4.47;44.09;101298.09;10430245;28;20139;-66
2023/04/04 00:41:32;;;;;;;1.63;1.42;;;;;;;4.43;43.93;101296.53;10422844;28;20596;-69
2023/04/04 00:46:33;;;;;;;3.67;1.60;;;;;;;4.42;44.06;101294.78;10425450;28;20142;-69
2023/04/04 00:51:35;;;;;;;2.78;1.60;;;;;;;4.37;44.46;101292.34;10432452;28;20055;-68
2023/04/04 00:56:38;;;;;;;3.10;1.90;;;;;;;4.35;44.38;101293.31;10437335;28;20106;-68
2023/04/04 01:01:40;;;;;;;3.65;1.70;;;;;;;4.34;44.55;101296.84;10429233;28;20061;-67
2023/04/04 01:06:42;;;;;;;2.20;1.50;;;;;;;4.31;44.65;101286.41;10425583;28;20139;-67
2023/04/04 01:11:44;;;;;;;2.35;1.83;;;;;;;4.29;44.47;101275.94;10432236;28;20056;-68
2023/04/04 01:16:48;;;;;;;2.15;1.70;;;;;;;4.32;44.35;101288.16;10424038;28;20161;-66
2023/04/04 01:21:52;;;;;;;2.17;1.70;;;;;;;4.19;44.32;101280.72;10426322;28;20052;-68
2023/04/04 01:26:53;;;;;;;4.72;1.92;;;;;;;4.18;44.70;101278.97;10424223;28;20055;-67
2023/04/04 01:32:11;;;;;;;3.17;1.65;;;;;;;4.14;44.69;101285.28;10430399;28;20045;-69
2023/04/04 01:37:34;;;;;;;1.90;1.70;;;;;;;4.07;44.42;101278.53;10426691;28;20119;-66
2023/04/04 01:42:36;;;;;;;2.20;2.00;;;;;;;4.07;44.72;101289.09;10422667;28;20142;-66
2023/04/04 01:47:39;;;;;;;2.35;2.03;;;;;;;4.04;44.62;101268.13;10432088;28;20414;-67
2023/04/04 01:52:41;;;;;;;3.22;1.90;;;;;;;4.05;44.86;101280.34;10429300;28;20088;-68
2023/04/04 01:57:43;;;;;;;2.50;1.67;;;;;;;4.00;45.16;101280.53;10433447;28;20233;-68
2023/04/04 02:02:44;;;;;;;3.30;2.22;;;;;;;4.01;45.06;101276.97;10432387;28;20464;-67
2023/04/04 02:07:48;;;;;;;3.78;2.40;;;;;;;4.01;44.85;101284.03;10429367;28;20061;-67
2023/04/04 02:12:52;;;;;;;2.08;1.90;;;;;;;3.89;45.42;101277.44;10433120;28;20055;-68
2023/04/04 02:17:53;;;;;;;2.53;2.00;;;;;;;3.94;45.18;101275.47;10433764;28;20058;-66
2023/04/04 02:22:55;;;;;;;5.47;2.50;;;;;;;3.86;44.75;101281.03;10440125;28;20404;-68
2023/04/04 02:27:57;;;;;;;2.88;2.17;;;;;;;3.89;45.10;101280.91;10430932;28;20139;-67
2023/04/04 02:32:59;;;;;;;3.15;2.05;;;;;;;3.85;45.04;101274.03;10434440;28;20190;-67
2023/04/04 02:38:00;;;;;;;2.53;1.90;;;;;;;3.77;44.93;101265.56;10442169;28;20140;-67
2023/04/04 02:43:02;;;;;;;2.13;1.85;;;;;;;3.80;44.49;101261.94;10435770;28;20055;-67
2023/04/04 02:48:06;;;;;;;2.35;1.98;;;;;;;3.80;44.82;101262.81;10435747;28;20243;-66
2023/04/04 02:53:07;;;;;;;3.47;2.25;;;;;;;3.64;45.05;101243.22;10441604;28;20128;-67
2023/04/04 02:58:09;;;;;;;2.45;2.25;;;;;;;3.73;44.93;101258.69;10446185;28;20221;-69
2023/04/04 03:03:10;;;;;;;2.20;2.00;;;;;;;3.68;44.81;101239.56;10437294;28;20089;-69
2023/04/04 03:08:12;;;;;;;2.63;2.42;;;;;;;3.65;44.59;101247.59;10433998;28;20049;-66
2023/04/04 03:13:13;;;;;;;4.38;2.17;;;;;;;3.64;44.77;101237.94;10433759;28;20057;-67
2023/04/04 03:18:15;;;;;;;2.50;2.30;;;;;;;3.59;44.90;101239.88;10434894;28;20134;-68
2023/04/04 03:23:16;;;;;;;2.60;2.40;;;;;;;3.56;44.82;101234.72;10432155;28;20584;-69
2023/04/04 03:28:18;;;;;;;6.32;2.35;;;;;;;3.53;45.07;101240.97;10431812;28;20128;-66
2023/04/04 03:33:20;;;;;;;3.08;2.63;;;;;;;3.50;44.79;101226.13;10427738;28;20049;-69
2023/04/04 03:38:22;;;;;;;3.47;2.30;;;;;;;3.54;44.77;101227.75;10431482;28;20075;-68
2023/04/04 03:43:23;;;;;;;2.72;2.22;;;;;;;3.49;44.86;101221.78;10425589;28;20051;-67
2023/04/04 03:48:24;;;;;;;3.25;2.30;;;;;;;3.47;45.00;101215.72;10434302;28;20077;-67
2023/04/04 03:53:27;;;;;;;3.20;2.47;;;;;;;3.47;44.93;101220.97;10433913;28;20393;-68
2023/04/04 03:58:29;;;;;;;3.78;2.03;;;;;;;3.41;45.09;101221.19;10433679;28;20053;-68
2023/04/04 04:03:31;;;;;;;3.65;2.42;;;;;;;3.38;45.12;101216.03;10429645;28;20048;-69
2023/04/04 04:08:32;;;;;;;3.58;2.83;;;;;;;3.32;45.70;101222.38;10435866;28;20053;-67
2023/04/04 04:13:36;;;;;;;2.92;2.28;;;;;;;3.34;45.79;101219.69;10430464;28;20148;-66
2023/04/04 04:18:39;;;;;;;3.33;2.37;;;;;;;3.35;46.16;101218.78;10429035;28;20523;-67
2023/04/04 04:23:40;;;;;;;2.40;2.20;;;;;;;3.32;46.42;101216.25;10434645;28;20080;-66
2023/04/04 04:28:41;;;;;;;3.33;2.38;;;;;;;3.32;45.96;101208.38;10430504;28;20048;-66
2023/04/04 04:33:43;;;;;;;3.38;2.35;;;;;;;3.29;46.05;101221.63;10448462;28;20427;-68
2023/04/04 04:38:44;;;;;;;3.58;2.60;;;;;;;3.28;46.16;101223.38;10443416;28;20159;-67
2023/04/04 04:43:45;;;;;;;2.53;2.33;;;;;;;3.24;45.89;101219.13;10432440;28;20049;-67
2023/04/04 04:48:47;;;;;;;3.03;2.70;;;;;;;3.21;46.28;101218.41;10435225;28;20686;-68
2023/04/04 04:53:48;;;;;;;3.42;2.78;;;;;;;3.25;46.19;101220.88;10430788;28;20061;-67
2023/04/04 04:58:50;;;;;;;3.50;2.35;;;;;;;3.24;46.11;101218.28;10427902;28;20413;-67
2023/04/04 05:03:51;;;;;;;2.33;1.85;;;;;;;3.27;45.85;101229.59;10435462;28;22223;-65
2023/04/04 05:08:53;;;;;;;2.50;2.20;;;;;;;3.28;46.22;101231.28;10426980;28;20464;-66
2023/04/04 05:13:56;;;;;;;2.78;2.45;;;;;;;3.33;46.57;101224.09;10422016;28;20052;-67
2023/04/04 05:18:57;;;;;;;2.90;2.67;;;;;;;3.31;46.31;101227.69;10421913;28;20071;-65
2023/04/04 05:23:58;;;;;;;3.88;2.40;;;;;;;3.30;46.93;101229.47;10422600;28;20475;-68
2023/04/04 05:29:00;;;;;;;3.88;2.88;;;;;;;3.33;47.19;101224.09;10412931;28;20276;-68
2023/04/04 05:34:06;;;;;;;3.42;2.55;;;;;;;3.32;47.60;101226.78;10421681;28;20139;-66
2023/04/04 05:39:08;;;;;;;5.00;2.92;;;;;;;3.34;47.85;101235.47;10426604;28;20105;-68
2023/04/04 05:44:10;;;;;;;4.70;2.90;;;;;;;3.38;48.28;101237.09;10422995;28;20146;-67
2023/04/04 05:49:11;;;;;;;3.55;2.88;;;;;;;3.47;48.12;101238.56;10442855;28;20193;-68
2023/04/04 05:54:13;;;;;;;4.15;2.92;;;;;;;3.48;47.51;101238.50;10427693;28;20060;-69
2023/04/04 05:59:15;;;;;;;4.40;3.22;;;;;;;3.54;47.56;101237.41;10427413;28;20119;-69
2023/04/04 06:04:17;;;;;;;3.97;2.30;;;;;;;3.60;47.42;101242.44;10428877;28;20065;-67
2023/04/04 06:09:18;;;;;;;3.63;3.00;;;;;;;3.74;47.32;101241.97;10431325;28;20795;-70
2023/04/04 06:14:19;;;;;;;2.70;2.47;;;;;;;3.92;45.88;101242.19;10443210;28;20107;-68
2023/04/04 06:19:21;;;;;;;2.78;2.20;;;;;;;4.03;45.77;101250.59;10428119;28;20389;-68
2023/04/04 06:24:22;;;;;;;2.55;2.35;;;;;;;4.12;45.67;101244.97;10416753;28;20670;-68
2023/04/04 06:29:25;;;;;;;3.10;2.88;;;;;;;4.30;45.35;101242.56;10419031;28;20052;-70
2023/04/04 06:34:26;;;;;;;3.53;2.60;;;;;;;4.51;45.04;101251.41;10421404;28;20053;-69
2023/04/04 06:39:30;;;;;;;3.25;2.92;;;;;;;4.55;45.14;101243.31;10423124;28;20060;-69
2023/04/04 06:44:31;;;;;;;4.15;2.38;;;;;;;4.78;44.28;101254.72;10422763;28;20044;-70
2023/04/04 06:49:33;;;;;;;3.03;2.20;;;;;;;4.92;43.28;101257.66;10423715;28;20060;-68
2023/04/04 06:54:34;;;;;;;4.10;2.47;;;;;;;5.14;42.65;101256.75;10422631;28;20842;-68
2023/04/04 06:59:36;;;;;;;2.25;2.03;;;;;;;5.39;42.26;101250.44;10419071;28;20166;-70
2023/04/04 07:04:38;;;;;;;2.97;2.13;;;;;;;5.61;41.34;101260.94;10419052;28;20052;-69
2023/04/04 07:09:40;;;;;;;2.17;1.90;;;;;;;5.77;40.50;101258.50;10417248;28;20423;-71
2023/04/04 07:14:41;;;;;;;3.75;2.00;;;;;;;5.86;40.82;101268.66;10417333;28;20055;-71
2023/04/04 07:19:42;;;;;;;3.47;1.92;;;;;;;6.12;40.97;101266.63;10408971;28;20467;-69
2023/04/04 07:24:44;;;;;;;2.22;1.75;;;;;;;6.26;41.13;101273.94;10406508;28;20360;-68
2023/04/04 07:29:46;;;;;;;3.42;1.65;;;;;;;6.33;40.74;101273.56;10406567;28;20071;-72
2023/04/04 07:34:48;;;;;;;3.03;1.52;;;;;;;6.44;39.07;101270.44;10411662;28;20056;-70
2023/04/04 07:39:50;;;;;;;3.20;1.27;;;;;;;6.63;38.60;101275.72;10407489;28;20443;-67
2023/04/04 07:44:51;;;;;;;3.92;1.90;;;;;;;6.62;39.52;101278.44;10403371;28;20463;-67
2023/04/04 07:49:52;;;;;;;5.15;1.90;;;;;;;6.80;39.01;101264.34;10405743;28;20052;-68
2023/04/04 07:54:54;;;;;;;2.08;1.88;;;;;;;6.92;39.99;101265.53;10404951;28;20067;-68
2023/04/04 07:59:55;;;;;;;2.17;1.77;;;;;;;7.07;38.95;101250.66;10406935;28;20592;-71
2023/04/04 08:04:57;;;;;;;2.00;1.50;;;;;;;7.25;38.35;101259.44;10399191;28;20045;-70
2023/04/04 08:09:58;;;;;;;2.20;1.55;;;;;;;7.42;37.61;101248.03;10406356;28;20060;-68
2023/04/04 08:15:00;;;;;;;5.25;1.67;;;;;;;7.54;37.74;101249.19;10404243;28;22732;-69
2023/04/04 08:20:03;;;;;;;2.85;1.45;;;;;;;7.47;37.66;101247.78;10404363;28;20059;-67
2023/04/04 08:25:05;;;;;;;3.67;1.90;;;;;;;7.59;38.04;101244.50;10427695;28;20079;-68
2023/04/04 08:30:08;;;;;;;1.50;1.20;;;;;;;7.63;36.85;101246.06;10400891;28;20053;-70
2023/04/04 08:35:10;;;;;;;2.42;1.42;;;;;;;7.97;36.84;101246.88;10409232;28;20086;-70
2023/04/04 08:40:12;;;;;;;1.90;1.55;;;;;;;8.24;35.25;101241.03;10408426;28;20475;-64
2023/04/04 08:45:16;;;;;;;2.13;1.40;;;;;;;8.44;34.53;101240.81;10402222;28;20151;-68
2023/04/04 08:50:20;;;;;;;3.08;1.50;;;;;;;8.01;35.15;101243.16;10404342;28;20079;-65
2023/04/04 08:55:22;;;;;;;2.85;1.30;;;;;;;8.39;34.66;101237.56;10402583;28;20210;-67
2023/04/04 09:00:24;;;;;;;3.30;1.60;;;;;;;8.77;33.51;101231.91;10402593;28;20056;-69
2023/04/04 09:05:25;;;;;;;3.28;1.52;;;;;;;9.19;35.13;101225.03;10407454;28;21185;-64
2023/04/04 09:10:28;;;;;;;2.20;1.25;;;;;;;9.30;32.97;101227.03;10409789;28;20589;-67
2023/04/04 09:15:31;;;;;;;2.88;1.20;;;;;;;9.66;31.77;101217.78;10411983;28;20048;-67
2023/04/04 09:20:37;;;;;;;1.85;1.20;;;;;;;9.77;31.27;101225.09;10406908;28;20062;-66
2023/04/04 09:25:47;;;;;;;2.90;1.58;;;;;;;9.73;29.78;101231.59;10410664;28;20333;-67
2023/04/04 09:31:08;;;;;;;3.03;1.50;;;;;;;10.01;29.76;101220.09;10415168;28;20053;-66
2023/04/04 09:36:11;;;;;;;2.33;1.80;;;;;;;10.31;29.16;101215.56;10433038;28;20115;-69
2023/04/04 09:41:14;;;;;;;2.75;1.33;;;;;;;10.78;28.45;101214.31;10420679;28;20049;-67
2023/04/04 09:46:20;;;;;;;2.20;1.45;;;;;;;11.10;29.05;101203.31;10438095;28;20909;-67
2023/04/04 09:51:21;;;;;;;2.17;1.20;;;;;;;11.42;29.23;101198.44;10425418;28;20061;-68
2023/04/04 09:56:23;;;;;;;2.45;1.30;;;;;;;11.77;29.51;101208.47;10413146;28;20052;-66
2023/04/04 10:01:24;;;;;;;3.42;1.40;;;;;;;12.08;28.97;101205.47;10411351;28;20063;-68
2023/04/04 10:06:26;;;;;;;2.22;1.45;;;;;;;12.60;27.42;101207.00;10404497;28;20734;-68
2023/04/04 10:11:33;;;;;;;3.20;1.30;;;;;;;12.97;26.95;101201.59;10412669;28;20167;-67
2023/04/04 10:16:36;;;;;;;1.42;1.15;;;;;;;12.90;27.36;101198.53;10410316;28;20114;-67
2023/04/04 10:21:39;;;;;;;1.37;1.07;;;;;;;15.89;25.26;101202.94;10430073;28;21295;-69
2023/04/04 10:26:41;;;;;;;2.97;1.10;;;;;;;19.46;20.08;101190.63;10426962;28;20384;-70
2023/04/04 10:31:46;;;;;;;3.00;1.33;;;;;;;21.10;18.20;101187.59;10413577;28;20040;-66
2023/04/04 10:36:57;;;;;;;1.63;0.90;;;;;;;19.00;19.50;101203.44;10413138;28;20049;-68
2023/04/04 10:42:00;;;;;;;1.35;0.80;;;;;;;17.88;20.76;101188.34;10413780;28;20041;-67
2023/04/04 10:47:13;;;;;;;;;;;;;;;18.10;20.72;101197.94;10410662;28;20059;-69
2023/04/04 10:52:17;;;;;;;1.50;0.85;;;;;;;22.50;17.30;101198.03;10412665;28;20323;-70
2023/04/04 10:57:19;;;;;;;1.95;1.25;;;;;;;25.75;14.54;101181.63;10410928;28;20070;-66
2023/04/04 11:02:43;;;;;;;3.20;1.27;;;;;;;27.27;13.19;101186.84;10407652;28;20159;-67
2023/04/04 11:07:46;;;;;;;1.98;1.00;;;;;;;28.05;12.77;101174.31;10412145;28;20415;-68
2023/04/04 11:13:11;;;;;;;1.80;1.03;;;;;;;28.61;12.12;101160.97;10407679;28;20048;-68
2023/04/04 11:18:15;;;;;;;1.17;0.68;;;;;;;29.86;11.72;101145.47;10406933;28;20527;-68
2023/04/04 11:23:48;;;;;;;2.33;1.08;;;;;;;30.39;10.86;101147.50;10412982;28;20093;-68
2023/04/04 11:28:50;;;;;;;1.25;0.80;;;;;;;30.56;10.94;101144.09;10407736;28;20127;-69
2023/04/04 11:34:04;;;;;;;;;;;;;;;31.42;10.41;101135.44;10403606;28;20088;-70
2023/04/04 11:39:29;;;;;;;1.48;0.77;;;;;;;31.78;9.97;101133.47;10409892;28;20001;-67
2023/04/04 11:44:32;;;;;;;2.50;1.33;;;;;;;31.96;9.78;101125.03;10404200;28;20495;-71
2023/04/04 11:49:36;;;;;;;1.63;1.13;;;;;;;32.18;9.49;101103.19;10412245;28;20048;-70
2023/04/04 11:54:39;;;;;;;2.75;0.98;;;;;;;32.70;10.12;101098.56;10406340;28;20063;-69
2023/04/04 11:59:44;;;;;;;1.95;1.20;;;;;;;32.73;9.42;101096.16;10403613;28;20060;-70
2023/04/04 12:04:46;;;;;;;1.90;0.90;;;;;;;33.06;9.02;101093.59;10410875;28;20059;-71
2023/04/04 12:09:47;;;;;;;2.63;1.00;;;;;;;33.55;9.12;101085.44;10412986;28;20048;-69
2023/04/04 12:14:49;;;;;;;3.03;1.20;;;;;;;33.81;9.20;101086.63;10409355;28;20408;-69
2023/04/04 12:19:50;;;;;;;1.77;1.02;;;;;;;33.63;9.02;101092.47;10410749;28;20600;-71
2023/04/04 12:24:52;;;;;;;2.10;1.10;;;;;;;33.20;8.83;101083.91;10410207;28;20064;-69
2023/04/04 12:29:55;;;;;;;2.45;1.13;;;;;;;32.93;8.86;101067.22;10410947;28;20466;-71
2023/04/04 12:35:01;;;;;;;3.72;1.50;;;;;;;33.49;8.82;101064.41;10405700;28;20146;-70
2023/04/04 12:40:03;;;;;;;1.50;1.08;;;;;;;33.07;9.23;101057.53;10404004;28;20056;-70
2023/04/04 12:45:06;;;;;;;2.58;1.08;;;;;;;32.89;9.04;101063.31;10424565;28;20048;-70
2023/04/04 12:50:08;;;;;;;1.55;1.30;;;;;;;32.19;9.17;101046.19;10397287;28;20057;-69
2023/04/04 12:55:09;;;;;;;1.33;1.05;;;;;;;31.14;10.13;101051.81;10407262;28;20208;-68
2023/04/04 13:00:12;;;;;;;3.42;1.00;;;;;;;28.72;11.48;101051.53;10406627;28;20139;-72
2023/04/04 13:05:15;;;;;;;2.53;1.00;;;;;;;25.47;13.46;101041.84;10410562;28;20060;-67
2023/04/04 13:10:19;;;;;;;1.23;0.70;;;;;;;23.68;14.85;101049.09;10409790;28;20052;-71
2023/04/04 13:15:20;;;;;;;2.50;1.40;;;;;;;22.60;16.45;101035.84;10406730;28;20710;-69
2023/04/04 13:20:24;;;;;;;1.77;0.95;;;;;;;21.80;16.46;101034.41;10408141;28;20088;-70
2023/04/04 13:25:26;;;;;;;2.65;1.20;;;;;;;21.35;17.42;101019.72;10406399;28;20064;-73
2023/04/04 13:30:27;;;;;;;2.70;1.67;;;;;;;20.51;17.46;101005.66;10400970;28;20052;-69
2023/04/04 13:35:30;;;;;;;2.67;1.92;;;;;;;20.12;18.45;101018.00;10401429;28;20060;-71
2023/04/04 13:40:31;;;;;;;;;;;;;;;19.46;21.55;101011.59;10407749;28;20049;-68
2023/04/04 13:45:34;;;;;;;2.60;1.63;;;;;;;18.08;20.04;101005.97;10405605;28;20043;-68
2023/04/04 13:50:39;;;;;;;2.95;1.88;;;;;;;18.13;20.29;100992.88;10407588;28;20056;-69
2023/04/04 13:55:40;;;;;;;3.15;2.08;;;;;;;18.13;20.59;100992.88;10413741;28;20632;-68
2023/04/04 14:01:05;;;;;;;3.22;1.85;;;;;;;17.93;20.14;100976.88;10411053;28;21587;-71
2023/04/04 14:06:07;;;;;;;1.80;1.65;;;;;;;17.59;20.84;100979.34;10411772;28;20650;-71
2023/04/04 14:11:12;;;;;;;2.80;1.80;;;;;;;17.11;21.27;100970.53;10408318;28;20482;-69
2023/04/04 14:16:13;;;;;;;3.55;1.80;;;;;;;16.82;22.48;100960.72;10408171;28;20124;-68
2023/04/04 14:21:15;;;;;;;1.98;1.77;;;;;;;16.52;22.74;100954.59;10411590;28;20064;-69
2023/04/04 14:26:16;;;;;;;3.97;1.80;;;;;;;15.78;23.63;100949.84;10405727;28;20298;-66
2023/04/04 14:31:18;;;;;;;2.90;2.10;;;;;;;15.63;23.69;100957.47;10405638;28;20577;-69
2023/04/04 14:36:20;;;;;;;3.20;2.50;;;;;;;15.24;23.01;100946.63;10394150;28;20053;-68
2023/04/04 14:41:21;;;;;;;4.78;1.83;;;;;;;15.04;23.50;100951.91;10406408;28;20099;-66
2023/04/04 14:46:24;;;;;;;2.95;1.80;;;;;;;14.77;24.28;100945.34;10403801;28;20056;-68
2023/04/04 14:51:26;;;;;;;3.33;2.00;;;;;;;14.49;24.84;100947.69;10404072;28;20226;-69
2023/04/04 14:56:27;;;;;;;2.03;1.80;;;;;;;14.21;24.81;100926.94;10406892;28;20266;-68
2023/04/04 15:01:29;;;;;;;2.20;1.85;;;;;;;13.77;25.86;100929.72;10403850;28;20281;-67
2023/04/04 15:06:36;;;;;;;3.40;2.20;;;;;;;13.82;25.60;100930.16;10412246;28;20133;-68
2023/04/04 15:11:38;;;;;;;2.58;2.13;;;;;;;13.67;24.97;100929.63;10406822;28;20128;-67
2023/04/04 15:16:40;;;;;;;3.03;1.80;;;;;;;13.69;25.29;100924.13;10401382;28;20682;-67
2023/04/04 15:21:42;;;;;;;2.83;2.00;;;;;;;13.40;25.47;100917.53;10390388;28;20198;-67
2023/04/04 15:26:43;;;;;;;2.38;1.83;;;;;;;13.42;25.80;100928.97;10398814;28;20064;-67
2023/04/04 15:31:45;;;;;;;1.95;1.80;;;;;;;13.43;25.62;100916.44;10396605;28;20056;-66
2023/04/04 15:36:48;;;;;;;2.10;1.88;;;;;;;13.24;26.04;100917.06;10403726;28;20060;-66
2023/04/04 15:41:50;;;;;;;2.63;2.00;;;;;;;13.09;26.48;100909.31;10408094;28;20091;-69
2023/04/04 15:46:51;;;;;;;1.90;1.70;;;;;;;13.08;26.76;100907.63;10414617;28;20061;-69
2023/04/04 15:51:53;;;;;;;2.00;1.80;;;;;;;13.11;26.73;100905.69;10426377;28;20125;-68
2023/04/04 15:56:55;;;;;;;2.35;2.00;;;;;;;12.94;26.72;100894.53;10440728;28;20094;-65
2023/04/04 16:01:56;;;;;;;2.10;1.70;;;;;;;12.82;27.21;100898.16;10423746;28;20147;-70
2023/04/04 16:06:58;;;;;;;2.85;1.85;;;;;;;12.60;27.47;100891.03;10409661;28;20365;-67
2023/04/04 16:12:01;;;;;;;2.90;1.95;;;;;;;12.58;27.76;100892.94;10407037;28;20175;-67
2023/04/04 16:17:02;;;;;;;2.22;1.88;;;;;;;12.54;26.70;100895.03;10405709;28;20790;-68
2023/04/04 16:22:05;;;;;;;3.75;2.35;;;;;;;12.56;27.61;100895.75;10407408;28;20668;-68
2023/04/04 16:27:06;;;;;;;3.42;2.15;;;;;;;12.54;28.24;100887.00;10403484;28;20056;-66
2023/04/04 16:32:07;;;;;;;2.83;1.98;;;;;;;12.39;27.81;100886.38;10409543;28;20053;-69
2023/04/04 16:37:10;;;;;;;4.00;2.88;;;;;;;12.43;28.60;100884.31;10401517;28;20064;-68
2023/04/04 16:42:12;;;;;;;2.38;2.10;;;;;;;12.22;28.04;100882.38;10407604;28;20240;-70
2023/04/04 16:47:13;;;;;;;2.72;2.08;;;;;;;12.20;28.16;100878.97;10407771;28;20586;-68
2023/04/04 16:52:15;;;;;;;2.42;2.20;;;;;;;12.20;28.63;100886.97;10406058;28;20057;-66
2023/04/04 16:57:16;;;;;;;1.92;1.73;;;;;;;11.95;28.83;100864.84;10405444;28;20053;-68
2023/04/04 17:02:17;;;;;;;3.08;1.77;;;;;;;11.92;29.40;100870.38;10401488;28;20447;-67
2023/04/04 17:07:19;;;;;;;2.05;1.70;;;;;;;11.79;29.26;100874.94;10408582;28;20136;-66
2023/04/04 17:12:21;;;;;;;3.15;2.35;;;;;;;11.75;29.35;100873.47;10401744;28;20345;-67
2023/04/04 17:17:22;;;;;;;3.50;2.80;;;;;;;11.60;29.56;100876.31;10403688;28;20071;-65
2023/04/04 17:22:24;;;;;;;3.53;2.40;;;;;;;11.39;29.90;100881.44;10403603;28;20057;-66
2023/04/04 17:27:25;;;;;;;3.58;2.40;;;;;;;11.23;30.69;100870.19;10405752;28;20190;-67
2023/04/04 17:32:27;;;;;;;3.83;2.90;;;;;;;11.02;31.10;100877.94;10411898;28;20064;-65
2023/04/04 17:37:29;;;;;;;4.13;2.90;;;;;;;10.89;31.14;100886.00;10414677;28;20266;-65
2023/04/04 17:42:31;;;;;;;3.13;2.83;;;;;;;10.77;31.90;100882.38;10416483;28;20056;-65
2023/04/04 17:47:32;;;;;;;3.13;2.63;;;;;;;10.75;31.92;100885.16;10418569;28;20138;-70
2023/04/04 17:52:34;;;;;;;6.25;2.53;;;;;;;10.63;31.96;100885.16;10413180;28;20053;-70
2023/04/04 17:57:35;;;;;;;7.70;6.93;;;;;;;10.54;32.08;100884.88;10411361;28;20416;-67
2023/04/04 18:02:37;;;;;;;3.45;2.78;;;;;;;10.57;32.31;100900.63;10415936;28;20845;-65
2023/04/04 18:07:39;;;;;;;3.60;2.58;;;;;;;10.39;32.93;100877.97;10414154;28;20056;-70
2023/04/04 18:12:41;;;;;;;3.17;2.88;;;;;;;10.32;32.78;100900.59;10414327;28;20354;-66
2023/04/04 18:17:43;;;;;;;4.50;3.55;;;;;;;10.18;32.98;100901.56;10408719;28;20048;-71
2023/04/04 18:22:45;;;;;;;6.45;5.75;;;;;;;10.08;33.73;100902.16;10412679;28;20560;-71
2023/04/04 18:27:46;;;;;;;8.30;6.75;;;;;;;9.86;34.05;100896.59;10413000;28;20049;-67
2023/04/04 18:32:49;;;;;;;9.57;7.53;;;;;;;9.79;34.55;100911.25;10413109;28;20067;-65
2023/04/04 18:37:51;;;;;;;10.23;9.25;;;;;;;9.73;34.64;100912.53;10406079;28;20481;-67
2023/04/04 18:42:52;;;;;;;5.90;4.88;;;;;;;9.67;34.94;100918.25;10415160;28;25202;-71
2023/04/04 18:47:54;;;;;;;5.57;4.13;;;;;;;9.50;35.44;100919.34;10415387;28;20045;-68
2023/04/04 18:52:55;;;;;;;6.88;5.47;;;;;;;9.45;35.63;100918.81;10411407;28;20063;-65
2023/04/04 18:57:57;;;;;;;4.85;4.45;;;;;;;9.35;35.77;100929.16;10414908;28;21028;-70
2023/04/04 19:02:58;;;;;;;4.78;4.28;;;;;;;9.27;36.47;100940.28;10429605;28;20070;-70
2023/04/04 19:08:00;;;;;;;4.90;4.32;;;;;;;9.22;36.73;100933.56;10418176;28;20044;-68
2023/04/04 19:13:01;;;;;;;6.13;5.20;;;;;;;9.17;36.47;100937.38;10410399;28;20045;-70
2023/04/04 19:18:03;;;;;;;5.07;3.80;;;;;;;9.07;37.10;100936.28;10410934;28;20087;-72
2023/04/04 19:23:05;;;;;;;4.28;3.90;;;;;;;8.96;36.93;100928.97;10412560;28;20091;-69
2023/04/04 19:28:08;;;;;;;4.28;3.88;;;;;;;8.92;36.91;100939.91;10413780;28;20048;-67
2023/04/04 19:33:11;;;;;;;4.85;3.58;;;;;;;8.88;36.94;100933.06;10410998;28;20053;-68
2023/04/04 19:38:19;;;;;;;4.32;3.92;;;;;;;8.77;36.92;100915.16;10411261;28;20194;-68
2023/04/04 19:43:21;;;;;;;6.18;3.90;;;;;;;8.73;37.10;100927.75;10412389;28;20447;-68
2023/04/04 19:48:49;;;;;;;5.50;3.85;;;;;;;8.65;37.26;100925.56;10412252;28;20424;-71
2023/04/04 19:53:53;;;;;;;4.18;3.75;;;;;;;8.51;37.34;100903.47;10418605;28;20199;-69
2023/04/04 19:59:00;;;;;;;5.90;4.10;;;;;;;8.51;38.12;100928.22;10414374;28;21063;-70
2023/04/04 20:04:04;;;;;;;3.97;3.58;;;;;;;8.40;38.46;100933.31;10398934;28;20156;-69
2023/04/04 20:09:33;;;;;;;5.40;4.30;;;;;;;8.31;38.38;100932.88;10400291;28;20060;-68
2023/04/04 20:14:35;;;;;;;3.58;3.28;;;;;;;8.23;38.41;100921.06;10408242;28;20056;-71
2023/04/04 20:19:36;;;;;;;3.70;3.40;;;;;;;8.21;38.78;100929.13;10411378;28;20043;-67
2023/04/04 20:24:40;;;;;;;5.35;3.30;;;;;;;8.11;38.79;100920.84;10407851;28;20602;-71
2023/04/04 20:29:42;;;;;;;4.93;3.50;;;;;;;8.02;38.98;100937.28;10414480;28;20052;-70
2023/04/04 20:34:44;;;;;;;4.03;3.63;;;;;;;7.92;39.18;100914.91;10408477;28;20482;-68
2023/04/04 20:40:19;;;;;;;6.80;4.47;;;;;;;7.93;39.51;100927.25;10424476;28;20614;-67
2023/04/04 20:45:39;;;;;;;4.50;3.40;;;;;;;7.82;39.60;100929.66;10423412;28;20044;-68
2023/04/04 20:50:43;;;;;;;4.25;3.85;;;;;;;7.68;40.02;100922.50;10428646;28;20123;-69
2023/04/04 20:55:45;;;;;;;5.30;4.38;;;;;;;7.69;39.89;100943.63;10425634;28;20526;-70
2023/04/04 21:00:46;;;;;;;5.93;3.60;;;;;;;7.70;40.38;100937.38;10426030;28;20052;-66
2023/04/04 21:05:48;;;;;;;5.78;3.55;;;;;;;7.70;40.13;100942.69;10419377;28;20044;-69
2023/04/04 21:10:52;;;;;;;4.45;3.67;;;;;;;7.62;40.45;100929.00;10418152;28;20530;-68
2023/04/04 21:15:58;;;;;;;5.77;4.07;;;;;;;7.60;40.36;100920.31;10406639;28;20037;-68
2023/04/04 21:21:12;;;;;;;5.22;4.35;;;;;;;7.70;40.52;100931.22;10428306;28;20131;-71
2023/04/04 21:26:31;;;;;;;7.35;4.18;;;;;;;7.74;40.45;100938.88;10421512;28;20084;-72
2023/04/04 21:31:35;;;;;;;6.72;4.88;;;;;;;7.71;40.83;100936.41;10419977;28;20060;-68
2023/04/04 21:36:37;;;;;;;5.05;4.18;;;;;;;7.73;40.70;100945.16;10423251;28;20044;-67
2023/04/04 21:41:40;;;;;;;6.28;5.35;;;;;;;7.71;41.09;100944.38;10423909;28;20155;-72
2023/04/04 21:46:41;;;;;;;8.90;5.70;;;;;;;7.70;40.88;100939.16;10428276;28;20064;-70
2023/04/04 21:51:43;;;;;;;5.53;4.90;;;;;;;7.70;41.01;100937.38;10423448;28;20076;-64
2023/04/04 21:56:45;;;;;;;5.00;4.28;;;;;;;7.67;41.16;100932.25;10422476;28;20048;-65
2023/04/04 22:01:48;;;;;;;6.28;5.00;;;;;;;7.55;41.12;100925.00;10430246;28;20057;-69
2023/04/04 22:06:50;;;;;;;6.47;4.40;;;;;;;7.61;41.32;100938.75;10422345;28;20161;-70
2023/04/04 22:11:52;;;;;;;5.10;4.70;;;;;;;7.52;41.42;100934.00;10426392;28;20128;-66
2023/04/04 22:16:57;;;;;;;6.90;5.68;;;;;;;7.53;41.56;100942.78;10432312;28;20056;-67
2023/04/04 22:21:58;;;;;;;7.78;5.18;;;;;;;7.51;41.36;100947.31;10430653;28;20436;-68
2023/04/04 22:27:02;;;;;;;5.32;4.78;;;;;;;7.43;41.50;100940.66;10429832;28;20063;-71
2023/04/04 22:32:04;;;;;;;5.78;4.45;;;;;;;7.42;41.87;100933.63;10435004;28;20547;-67
2023/04/04 22:37:05;;;;;;;4.88;4.30;;;;;;;7.37;41.67;100926.88;10429330;28;20064;-67
2023/04/04 22:42:07;;;;;;;4.07;3.55;;;;;;;7.37;41.51;100934.84;10428041;28;20131;-66
2023/04/04 22:47:08;;;;;;;4.95;3.67;;;;;;;7.33;41.84;100923.56;10426711;28;20047;-71
2023/04/04 22:52:11;;;;;;;4.00;3.70;;;;;;;7.33;42.28;100925.38;10427772;28;20052;-67
2023/04/04 22:57:13;;;;;;;4.95;4.03;;;;;;;7.28;42.06;100920.34;10429238;28;20041;-65
2023/04/04 23:02:14;;;;;;;4.43;4.00;;;;;;;7.22;42.39;100915.34;10430989;28;20068;-69
2023/04/04 23:07:16;;;;;;;4.97;4.20;;;;;;;7.19;42.81;100927.00;10428905;28;20507;-70
2023/04/04 23:12:17;;;;;;;5.20;4.70;;;;;;;7.08;43.04;100921.44;10426394;28;20152;-69
2023/04/04 23:17:18;;;;;;;4.60;4.20;;;;;;;7.05;43.22;100919.78;10427559;28;20156;-71
2023/04/04 23:22:20;;;;;;;4.82;4.22;;;;;;;7.00;43.24;100913.91;10425465;28;20052;-67
2023/04/04 23:27:21;;;;;;;4.60;4.00;;;;;;;6.94;43.76;100922.19;10434460;28;20067;-70